sensor_id;sensor_type;location;lat;lon;timestamp;temperature;humidity
30097;DHT22;16915;51.466;3.610;2023-02-11T00:01:07;5.90;99.90
30097;DHT22;16915;51.466;3.610;2023-02-11T00:03:33;5.80;99.90
30097;DHT22;16915;51.466;3.610;2023-02-11T00:06:00;5.80;99.90
30097;DHT22;16915;51.466;3.610;2023-02-11T00:08:26;5.80;99.90
30097;DHT22;16915;51.466;3.610;2023-02-11T00:10:56;5.90;99.90
30097;DHT22;16915;51.466;3.610;2023-02-11T00:13:22;5.90;99.90
30097;DHT22;16915;51.466;3.610;2023-02-11T00:15:48;5.90;99.90
30097;DHT22;16915;51.466;3.610;2023-02-11T00:18:14;5.90;99.90
30097;DHT22;16915;51.466;3.610;2023-02-11T00:20:40;6.00;99.90
30097;DHT22;16915;51.466;3.610;2023-02-11T00:23:06;6.00;99.90
30097;DHT22;16915;51.466;3.610;2023-02-11T00:25:32;6.00;99.90
30097;DHT22;16915;51.466;3.610;2023-02-11T00:27:58;6.00;99.90
30097;DHT22;16915;51.466;3.610;2023-02-11T00:30:23;6.10;99.90
30097;DHT22;16915;51.466;3.610;2023-02-11T00:32:49;6.10;99.90
30097;DHT22;16915;51.466;3.610;2023-02-11T00:35:14;6.20;99.90
30097;DHT22;16915;51.466;3.610;2023-02-11T00:37:40;6.20;99.90
30097;DHT22;16915;51.466;3.610;2023-02-11T00:40:06;6.20;99.90
30097;DHT22;16915;51.466;3.610;2023-02-11T00:42:32;6.20;99.90
30097;DHT22;16915;51.466;3.610;2023-02-11T00:45:00;6.20;99.90
30097;DHT22;16915;51.466;3.610;2023-02-11T00:47:25;6.20;99.90
30097;DHT22;16915;51.466;3.610;2023-02-11T00:49:51;6.30;99.90
30097;DHT22;16915;51.466;3.610;2023-02-11T00:52:16;6.30;99.90
30097;DHT22;16915;51.466;3.610;2023-02-11T00:54:42;6.40;99.90
30097;DHT22;16915;51.466;3.610;2023-02-11T00:57:08;6.30;99.90
30097;DHT22;16915;51.466;3.610;2023-02-11T00:59:33;6.40;99.90
30097;DHT22;16915;51.466;3.610;2023-02-11T01:01:59;6.40;99.90
30097;DHT22;16915;51.466;3.610;2023-02-11T01:04:24;6.40;99.90
30097;DHT22;16915;51.466;3.610;2023-02-11T01:06:50;6.40;99.90
30097;DHT22;16915;51.466;3.610;2023-02-11T01:09:15;6.40;99.90
30097;DHT22;16915;51.466;3.610;2023-02-11T01:11:41;6.30;99.90
30097;DHT22;16915;51.466;3.610;2023-02-11T01:14:07;6.30;99.90
30097;DHT22;16915;51.466;3.610;2023-02-11T01:16:32;6.30;99.90
30097;DHT22;16915;51.466;3.610;2023-02-11T01:18:58;6.30;99.90
30097;DHT22;16915;51.466;3.610;2023-02-11T01:21:24;6.30;99.90
30097;DHT22;16915;51.466;3.610;2023-02-11T01:23:50;6.20;99.90
30097;DHT22;16915;51.466;3.610;2023-02-11T01:26:16;6.20;99.90
30097;DHT22;16915;51.466;3.610;2023-02-11T01:28:41;6.20;99.90
30097;DHT22;16915;51.466;3.610;2023-02-11T01:31:07;6.10;99.90
30097;DHT22;16915;51.466;3.610;2023-02-11T01:33:33;6.10;99.90
30097;DHT22;16915;51.466;3.610;2023-02-11T01:36:03;6.10;99.90
30097;DHT22;16915;51.466;3.610;2023-02-11T01:38:30;6.10;99.90
30097;DHT22;16915;51.466;3.610;2023-02-11T01:41:01;6.00;99.90
30097;DHT22;16915;51.466;3.610;2023-02-11T01:43:32;6.00;99.90
30097;DHT22;16915;51.466;3.610;2023-02-11T01:48:44;6.00;99.90
30097;DHT22;16915;51.466;3.610;2023-02-11T01:51:20;6.00;99.90
30097;DHT22;16915;51.466;3.610;2023-02-11T01:53:47;6.10;99.90
30097;DHT22;16915;51.466;3.610;2023-02-11T01:56:35;6.10;99.90
30097;DHT22;16915;51.466;3.610;2023-02-11T01:59:32;6.10;99.90
30097;DHT22;16915;51.466;3.610;2023-02-11T02:02:03;6.10;99.90
30097;DHT22;16915;51.466;3.610;2023-02-11T02:04:34;6.10;99.90
30097;DHT22;16915;51.466;3.610;2023-02-11T02:07:09;6.10;99.90
30097;DHT22;16915;51.466;3.610;2023-02-11T02:09:39;6.10;99.90
30097;DHT22;16915;51.466;3.610;2023-02-11T02:12:06;6.10;99.90
30097;DHT22;16915;51.466;3.610;2023-02-11T02:14:32;6.10;99.90
30097;DHT22;16915;51.466;3.610;2023-02-11T02:16:57;6.10;99.90
30097;DHT22;16915;51.466;3.610;2023-02-11T02:20:02;6.10;99.90
30097;DHT22;16915;51.466;3.610;2023-02-11T02:28:30;6.10;99.90
30097;DHT22;16915;51.466;3.610;2023-02-11T02:31:48;6.10;99.90
30097;DHT22;16915;51.466;3.610;2023-02-11T02:34:29;6.10;99.90
30097;DHT22;16915;51.466;3.610;2023-02-11T02:37:07;6.10;99.90
30097;DHT22;16915;51.466;3.610;2023-02-11T02:39:35;6.20;99.90
30097;DHT22;16915;51.466;3.610;2023-02-11T02:42:02;6.20;99.90
30097;DHT22;16915;51.466;3.610;2023-02-11T02:44:29;6.10;99.90
30097;DHT22;16915;51.466;3.610;2023-02-11T02:46:55;6.10;99.90
30097;DHT22;16915;51.466;3.610;2023-02-11T02:49:21;6.10;99.90
30097;DHT22;16915;51.466;3.610;2023-02-11T03:08:15;6.20;99.90
30097;DHT22;16915;51.466;3.610;2023-02-11T03:10:45;6.30;99.90
30097;DHT22;16915;51.466;3.610;2023-02-11T03:13:13;6.30;99.90
30097;DHT22;16915;51.466;3.610;2023-02-11T03:15:43;6.30;99.90
30097;DHT22;16915;51.466;3.610;2023-02-11T03:18:14;6.40;99.90
30097;DHT22;16915;51.466;3.610;2023-02-11T03:20:42;6.50;99.90
30097;DHT22;16915;51.466;3.610;2023-02-11T03:23:18;6.50;99.90
30097;DHT22;16915;51.466;3.610;2023-02-11T03:25:54;6.50;99.90
30097;DHT22;16915;51.466;3.610;2023-02-11T03:28:30;6.50;99.90
30097;DHT22;16915;51.466;3.610;2023-02-11T03:31:17;6.50;99.90
30097;DHT22;16915;51.466;3.610;2023-02-11T03:34:03;6.50;99.90
30097;DHT22;16915;51.466;3.610;2023-02-11T03:36:37;6.50;99.90
30097;DHT22;16915;51.466;3.610;2023-02-11T03:39:11;6.50;99.90
30097;DHT22;16915;51.466;3.610;2023-02-11T03:41:39;6.50;99.90
30097;DHT22;16915;51.466;3.610;2023-02-11T03:44:07;6.50;99.90
30097;DHT22;16915;51.466;3.610;2023-02-11T03:46:38;6.50;99.90
30097;DHT22;16915;51.466;3.610;2023-02-11T03:49:12;6.40;99.90
30097;DHT22;16915;51.466;3.610;2023-02-11T03:51:39;6.40;99.90
30097;DHT22;16915;51.466;3.610;2023-02-11T03:54:10;6.50;99.90
30097;DHT22;16915;51.466;3.610;2023-02-11T03:56:48;6.50;99.90
30097;DHT22;16915;51.466;3.610;2023-02-11T03:59:15;6.50;99.90
30097;DHT22;16915;51.466;3.610;2023-02-11T04:01:40;6.50;99.90
30097;DHT22;16915;51.466;3.610;2023-02-11T04:04:06;6.50;99.90
30097;DHT22;16915;51.466;3.610;2023-02-11T04:06:31;6.50;99.90
30097;DHT22;16915;51.466;3.610;2023-02-11T04:08:57;6.50;99.90
30097;DHT22;16915;51.466;3.610;2023-02-11T04:11:23;6.50;99.90
30097;DHT22;16915;51.466;3.610;2023-02-11T04:13:48;6.40;99.90
30097;DHT22;16915;51.466;3.610;2023-02-11T04:16:14;6.40;99.90
30097;DHT22;16915;51.466;3.610;2023-02-11T04:18:39;6.40;99.90
30097;DHT22;16915;51.466;3.610;2023-02-11T04:21:05;6.30;99.90
30097;DHT22;16915;51.466;3.610;2023-02-11T04:23:30;6.30;99.90
30097;DHT22;16915;51.466;3.610;2023-02-11T04:25:56;6.30;99.90
30097;DHT22;16915;51.466;3.610;2023-02-11T04:28:22;6.20;99.90
30097;DHT22;16915;51.466;3.610;2023-02-11T04:30:49;6.20;99.90
30097;DHT22;16915;51.466;3.610;2023-02-11T04:33:15;6.20;99.90
30097;DHT22;16915;51.466;3.610;2023-02-11T04:35:40;6.10;99.90
30097;DHT22;16915;51.466;3.610;2023-02-11T04:38:06;6.10;99.90
30097;DHT22;16915;51.466;3.610;2023-02-11T04:40:32;6.10;99.90
30097;DHT22;16915;51.466;3.610;2023-02-11T04:42:57;6.10;99.90
30097;DHT22;16915;51.466;3.610;2023-02-11T04:45:23;6.10;99.90
30097;DHT22;16915;51.466;3.610;2023-02-11T04:47:49;6.10;99.90
30097;DHT22;16915;51.466;3.610;2023-02-11T04:50:14;6.20;99.90
30097;DHT22;16915;51.466;3.610;2023-02-11T04:52:40;6.10;99.90
30097;DHT22;16915;51.466;3.610;2023-02-11T04:55:06;6.10;99.90
30097;DHT22;16915;51.466;3.610;2023-02-11T04:57:31;6.10;99.90
30097;DHT22;16915;51.466;3.610;2023-02-11T04:59:57;6.10;99.90
30097;DHT22;16915;51.466;3.610;2023-02-11T05:02:22;6.10;99.90
30097;DHT22;16915;51.466;3.610;2023-02-11T05:04:48;6.10;99.90
30097;DHT22;16915;51.466;3.610;2023-02-11T05:07:13;6.10;99.90
30097;DHT22;16915;51.466;3.610;2023-02-11T05:09:39;6.10;99.90
30097;DHT22;16915;51.466;3.610;2023-02-11T05:12:05;6.10;99.90
30097;DHT22;16915;51.466;3.610;2023-02-11T05:14:30;6.10;99.90
30097;DHT22;16915;51.466;3.610;2023-02-11T05:16:56;6.20;99.90
30097;DHT22;16915;51.466;3.610;2023-02-11T05:19:22;6.20;99.90
30097;DHT22;16915;51.466;3.610;2023-02-11T05:21:47;6.20;99.90
30097;DHT22;16915;51.466;3.610;2023-02-11T05:24:13;6.20;99.90
30097;DHT22;16915;51.466;3.610;2023-02-11T05:26:38;6.20;99.90
30097;DHT22;16915;51.466;3.610;2023-02-11T05:29:04;6.10;99.90
30097;DHT22;16915;51.466;3.610;2023-02-11T05:31:30;6.20;99.90
30097;DHT22;16915;51.466;3.610;2023-02-11T05:33:57;6.10;99.90
30097;DHT22;16915;51.466;3.610;2023-02-11T05:36:22;6.10;99.90
30097;DHT22;16915;51.466;3.610;2023-02-11T05:38:48;6.00;99.90
30097;DHT22;16915;51.466;3.610;2023-02-11T05:41:15;6.00;99.90
30097;DHT22;16915;51.466;3.610;2023-02-11T05:43:40;5.90;99.90
30097;DHT22;16915;51.466;3.610;2023-02-11T05:46:06;5.90;99.90
30097;DHT22;16915;51.466;3.610;2023-02-11T05:48:32;5.90;99.90
30097;DHT22;16915;51.466;3.610;2023-02-11T05:50:58;5.90;99.90
30097;DHT22;16915;51.466;3.610;2023-02-11T05:53:23;5.80;99.90
30097;DHT22;16915;51.466;3.610;2023-02-11T05:55:49;5.80;99.90
30097;DHT22;16915;51.466;3.610;2023-02-11T05:58:14;5.90;99.90
30097;DHT22;16915;51.466;3.610;2023-02-11T06:00:40;5.90;99.90
30097;DHT22;16915;51.466;3.610;2023-02-11T06:03:06;5.80;99.90
30097;DHT22;16915;51.466;3.610;2023-02-11T06:05:32;5.80;99.90
30097;DHT22;16915;51.466;3.610;2023-02-11T06:07:58;5.80;99.90
30097;DHT22;16915;51.466;3.610;2023-02-11T06:10:23;5.80;99.90
30097;DHT22;16915;51.466;3.610;2023-02-11T06:12:49;5.80;99.90
30097;DHT22;16915;51.466;3.610;2023-02-11T06:15:15;5.70;99.90
30097;DHT22;16915;51.466;3.610;2023-02-11T06:17:40;5.80;99.90
30097;DHT22;16915;51.466;3.610;2023-02-11T06:20:07;5.80;99.90
30097;DHT22;16915;51.466;3.610;2023-02-11T06:22:34;5.80;99.90
30097;DHT22;16915;51.466;3.610;2023-02-11T06:25:00;5.80;99.90
30097;DHT22;16915;51.466;3.610;2023-02-11T06:27:25;5.80;99.90
30097;DHT22;16915;51.466;3.610;2023-02-11T06:29:51;5.90;99.90
30097;DHT22;16915;51.466;3.610;2023-02-11T06:32:17;5.90;99.90
30097;DHT22;16915;51.466;3.610;2023-02-11T06:34:42;5.90;99.90
30097;DHT22;16915;51.466;3.610;2023-02-11T06:37:08;5.90;99.90
30097;DHT22;16915;51.466;3.610;2023-02-11T06:39:34;5.90;99.90
30097;DHT22;16915;51.466;3.610;2023-02-11T06:41:59;5.90;99.90
30097;DHT22;16915;51.466;3.610;2023-02-11T06:44:25;5.80;99.90
30097;DHT22;16915;51.466;3.610;2023-02-11T06:46:50;5.80;99.90
30097;DHT22;16915;51.466;3.610;2023-02-11T06:49:16;5.80;99.90
30097;DHT22;16915;51.466;3.610;2023-02-11T06:51:41;5.90;99.90
30097;DHT22;16915;51.466;3.610;2023-02-11T06:54:07;5.90;99.90
30097;DHT22;16915;51.466;3.610;2023-02-11T06:56:33;5.90;99.90
30097;DHT22;16915;51.466;3.610;2023-02-11T06:58:59;5.90;99.90
30097;DHT22;16915;51.466;3.610;2023-02-11T07:01:26;5.90;99.90
30097;DHT22;16915;51.466;3.610;2023-02-11T07:03:52;5.90;99.90
30097;DHT22;16915;51.466;3.610;2023-02-11T07:06:22;5.90;99.90
30097;DHT22;16915;51.466;3.610;2023-02-11T07:08:49;5.90;99.90
30097;DHT22;16915;51.466;3.610;2023-02-11T07:11:23;5.90;99.90
30097;DHT22;16915;51.466;3.610;2023-02-11T07:13:50;5.90;99.90
30097;DHT22;16915;51.466;3.610;2023-02-11T07:16:17;5.90;99.90
30097;DHT22;16915;51.466;3.610;2023-02-11T07:18:43;5.80;99.90
30097;DHT22;16915;51.466;3.610;2023-02-11T07:21:13;5.80;99.90
30097;DHT22;16915;51.466;3.610;2023-02-11T07:23:39;5.90;99.90
30097;DHT22;16915;51.466;3.610;2023-02-11T07:26:11;5.90;99.90
30097;DHT22;16915;51.466;3.610;2023-02-11T07:28:39;5.90;99.90
30097;DHT22;16915;51.466;3.610;2023-02-11T07:31:10;5.90;99.90
30097;DHT22;16915;51.466;3.610;2023-02-11T07:33:36;6.00;99.90
30097;DHT22;16915;51.466;3.610;2023-02-11T07:36:04;6.00;99.90
30097;DHT22;16915;51.466;3.610;2023-02-11T07:38:31;6.10;99.90
30097;DHT22;16915;51.466;3.610;2023-02-11T07:41:12;6.10;99.90
30097;DHT22;16915;51.466;3.610;2023-02-11T07:43:38;6.10;99.90
30097;DHT22;16915;51.466;3.610;2023-02-11T07:46:13;6.20;99.90
30097;DHT22;16915;51.466;3.610;2023-02-11T07:48:38;6.20;99.90
30097;DHT22;16915;51.466;3.610;2023-02-11T07:53:41;6.30;99.90
30097;DHT22;16915;51.466;3.610;2023-02-11T07:56:08;6.30;99.90
30097;DHT22;16915;51.466;3.610;2023-02-11T07:58:34;6.40;99.90
30097;DHT22;16915;51.466;3.610;2023-02-11T08:01:04;6.40;99.90
30097;DHT22;16915;51.466;3.610;2023-02-11T08:03:30;6.40;99.90
30097;DHT22;16915;51.466;3.610;2023-02-11T08:05:56;6.50;99.90
30097;DHT22;16915;51.466;3.610;2023-02-11T08:08:24;6.50;99.90
30097;DHT22;16915;51.466;3.610;2023-02-11T08:10:50;6.60;99.90
30097;DHT22;16915;51.466;3.610;2023-02-11T08:13:15;6.60;99.90
30097;DHT22;16915;51.466;3.610;2023-02-11T08:15:41;6.60;99.90
30097;DHT22;16915;51.466;3.610;2023-02-11T08:18:06;6.70;99.90
30097;DHT22;16915;51.466;3.610;2023-02-11T08:20:33;6.70;99.90
30097;DHT22;16915;51.466;3.610;2023-02-11T08:22:58;6.80;99.90
30097;DHT22;16915;51.466;3.610;2023-02-11T08:25:24;6.80;99.90
30097;DHT22;16915;51.466;3.610;2023-02-11T08:27:49;6.90;99.90
30097;DHT22;16915;51.466;3.610;2023-02-11T08:30:15;7.00;99.90
30097;DHT22;16915;51.466;3.610;2023-02-11T08:32:40;7.00;99.90
30097;DHT22;16915;51.466;3.610;2023-02-11T08:35:06;7.10;99.90
30097;DHT22;16915;51.466;3.610;2023-02-11T08:37:32;7.10;99.90
30097;DHT22;16915;51.466;3.610;2023-02-11T08:39:58;7.20;99.90
30097;DHT22;16915;51.466;3.610;2023-02-11T08:42:24;7.20;99.90
30097;DHT22;16915;51.466;3.610;2023-02-11T08:44:49;7.30;99.90
30097;DHT22;16915;51.466;3.610;2023-02-11T08:47:15;7.30;99.90
30097;DHT22;16915;51.466;3.610;2023-02-11T08:49:40;7.40;99.90
30097;DHT22;16915;51.466;3.610;2023-02-11T08:52:07;7.40;99.90
30097;DHT22;16915;51.466;3.610;2023-02-11T08:54:33;7.40;99.90
30097;DHT22;16915;51.466;3.610;2023-02-11T08:56:58;7.50;99.90
30097;DHT22;16915;51.466;3.610;2023-02-11T08:59:26;7.50;99.90
30097;DHT22;16915;51.466;3.610;2023-02-11T09:01:52;7.50;99.90
30097;DHT22;16915;51.466;3.610;2023-02-11T09:04:17;7.50;99.90
30097;DHT22;16915;51.466;3.610;2023-02-11T09:06:43;7.50;99.90
30097;DHT22;16915;51.466;3.610;2023-02-11T09:09:11;7.60;99.90
30097;DHT22;16915;51.466;3.610;2023-02-11T09:11:38;7.60;99.90
30097;DHT22;16915;51.466;3.610;2023-02-11T09:14:06;7.60;99.90
30097;DHT22;16915;51.466;3.610;2023-02-11T09:16:34;7.60;99.90
30097;DHT22;16915;51.466;3.610;2023-02-11T09:19:02;7.60;99.90
30097;DHT22;16915;51.466;3.610;2023-02-11T09:21:28;7.70;99.90
30097;DHT22;16915;51.466;3.610;2023-02-11T09:23:54;7.70;99.90
30097;DHT22;16915;51.466;3.610;2023-02-11T09:26:22;7.80;99.90
30097;DHT22;16915;51.466;3.610;2023-02-11T09:28:48;7.80;99.90
30097;DHT22;16915;51.466;3.610;2023-02-11T09:31:17;7.90;99.90
30097;DHT22;16915;51.466;3.610;2023-02-11T09:33:45;8.00;99.90
30097;DHT22;16915;51.466;3.610;2023-02-11T09:36:20;8.00;99.90
30097;DHT22;16915;51.466;3.610;2023-02-11T09:38:46;8.00;99.90
30097;DHT22;16915;51.466;3.610;2023-02-11T09:44:07;8.00;99.90
30097;DHT22;16915;51.466;3.610;2023-02-11T09:46:36;8.00;99.90
30097;DHT22;16915;51.466;3.610;2023-02-11T09:49:05;8.00;99.90
30097;DHT22;16915;51.466;3.610;2023-02-11T09:56:55;7.90;99.90
30097;DHT22;16915;51.466;3.610;2023-02-11T09:59:21;7.80;99.90
30097;DHT22;16915;51.466;3.610;2023-02-11T10:07:45;7.80;99.90
30097;DHT22;16915;51.466;3.610;2023-02-11T10:10:38;7.80;99.90
30097;DHT22;16915;51.466;3.610;2023-02-11T10:13:28;7.80;99.90
30097;DHT22;16915;51.466;3.610;2023-02-11T10:16:04;7.80;99.90
30097;DHT22;16915;51.466;3.610;2023-02-11T10:24:23;7.90;99.90
30097;DHT22;16915;51.466;3.610;2023-02-11T10:26:50;8.00;99.90
30097;DHT22;16915;51.466;3.610;2023-02-11T10:29:34;8.00;99.90
30097;DHT22;16915;51.466;3.610;2023-02-11T10:32:05;8.00;99.90
30097;DHT22;16915;51.466;3.610;2023-02-11T10:34:31;8.00;99.90
30097;DHT22;16915;51.466;3.610;2023-02-11T10:36:57;8.10;99.90
30097;DHT22;16915;51.466;3.610;2023-02-11T10:39:25;8.20;99.90
30097;DHT22;16915;51.466;3.610;2023-02-11T10:41:51;8.30;99.90
30097;DHT22;16915;51.466;3.610;2023-02-11T10:44:34;8.40;99.90
30097;DHT22;16915;51.466;3.610;2023-02-11T10:47:04;8.50;99.90
30097;DHT22;16915;51.466;3.610;2023-02-11T10:49:35;8.50;99.90
30097;DHT22;16915;51.466;3.610;2023-02-11T10:57:20;8.60;99.90
30097;DHT22;16915;51.466;3.610;2023-02-11T10:59:46;8.60;99.90
30097;DHT22;16915;51.466;3.610;2023-02-11T11:02:26;8.50;99.90
30097;DHT22;16915;51.466;3.610;2023-02-11T11:04:58;8.50;99.90
30097;DHT22;16915;51.466;3.610;2023-02-11T11:07:32;8.50;99.90
30097;DHT22;16915;51.466;3.610;2023-02-11T11:10:45;8.50;99.90
30097;DHT22;16915;51.466;3.610;2023-02-11T11:16:16;8.50;99.90
30097;DHT22;16915;51.466;3.610;2023-02-11T11:18:44;8.50;99.90
30097;DHT22;16915;51.466;3.610;2023-02-11T11:21:20;8.50;99.90
30097;DHT22;16915;51.466;3.610;2023-02-11T11:24:01;8.50;99.90
30097;DHT22;16915;51.466;3.610;2023-02-11T11:26:45;8.60;99.90
30097;DHT22;16915;51.466;3.610;2023-02-11T11:29:21;8.60;99.90
30097;DHT22;16915;51.466;3.610;2023-02-11T11:31:51;8.70;99.90
30097;DHT22;16915;51.466;3.610;2023-02-11T11:34:33;8.80;99.90
30097;DHT22;16915;51.466;3.610;2023-02-11T11:37:08;8.80;99.90
30097;DHT22;16915;51.466;3.610;2023-02-11T11:39:34;8.80;99.90
30097;DHT22;16915;51.466;3.610;2023-02-11T11:42:19;8.80;99.90
30097;DHT22;16915;51.466;3.610;2023-02-11T11:44:56;8.80;99.90
30097;DHT22;16915;51.466;3.610;2023-02-11T11:47:33;8.80;99.90
30097;DHT22;16915;51.466;3.610;2023-02-11T11:50:35;8.80;99.90
30097;DHT22;16915;51.466;3.610;2023-02-11T11:53:59;8.80;99.90
30097;DHT22;16915;51.466;3.610;2023-02-11T11:58:46;9.00;99.90
30097;DHT22;16915;51.466;3.610;2023-02-11T12:01:37;9.00;99.90
30097;DHT22;16915;51.466;3.610;2023-02-11T12:07:01;9.00;99.90
30097;DHT22;16915;51.466;3.610;2023-02-11T12:15:18;9.10;99.90
30097;DHT22;16915;51.466;3.610;2023-02-11T12:31:59;9.30;99.90
30097;DHT22;16915;51.466;3.610;2023-02-11T12:37:03;9.40;99.90
30097;DHT22;16915;51.466;3.610;2023-02-11T12:39:49;9.40;99.90
30097;DHT22;16915;51.466;3.610;2023-02-11T12:42:27;9.40;99.90
30097;DHT22;16915;51.466;3.610;2023-02-11T12:45:17;9.40;99.90
30097;DHT22;16915;51.466;3.610;2023-02-11T12:56:42;9.50;99.90
30097;DHT22;16915;51.466;3.610;2023-02-11T12:59:37;9.50;99.90
30097;DHT22;16915;51.466;3.610;2023-02-11T13:05:08;9.70;99.90
30097;DHT22;16915;51.466;3.610;2023-02-11T13:07:40;9.60;99.90
30097;DHT22;16915;51.466;3.610;2023-02-11T13:10:27;9.70;99.90
30097;DHT22;16915;51.466;3.610;2023-02-11T13:12:55;9.70;99.90
30097;DHT22;16915;51.466;3.610;2023-02-11T13:15:49;9.60;99.90
30097;DHT22;16915;51.466;3.610;2023-02-11T13:24:00;9.40;99.90
30097;DHT22;16915;51.466;3.610;2023-02-11T13:27:00;9.40;99.90
30097;DHT22;16915;51.466;3.610;2023-02-11T13:32:11;9.40;99.90
30097;DHT22;16915;51.466;3.610;2023-02-11T13:37:22;9.40;99.90
30097;DHT22;16915;51.466;3.610;2023-02-11T13:43:04;9.30;99.90
30097;DHT22;16915;51.466;3.610;2023-02-11T13:45:36;9.30;99.90
30097;DHT22;16915;51.466;3.610;2023-02-11T13:48:12;9.30;99.90
30097;DHT22;16915;51.466;3.610;2023-02-11T13:50:46;9.30;99.90
30097;DHT22;16915;51.466;3.610;2023-02-11T13:53:13;9.30;99.90
30097;DHT22;16915;51.466;3.610;2023-02-11T13:55:44;9.30;99.90
30097;DHT22;16915;51.466;3.610;2023-02-11T14:09:34;9.30;99.90
30097;DHT22;16915;51.466;3.610;2023-02-11T14:12:24;9.30;99.90
30097;DHT22;16915;51.466;3.610;2023-02-11T14:14:59;9.30;99.90
30097;DHT22;16915;51.466;3.610;2023-02-11T14:17:28;9.30;99.90
30097;DHT22;16915;51.466;3.610;2023-02-11T14:19:55;9.30;99.90
30097;DHT22;16915;51.466;3.610;2023-02-11T14:22:25;9.30;99.90
30097;DHT22;16915;51.466;3.610;2023-02-11T14:24:53;9.30;99.90
30097;DHT22;16915;51.466;3.610;2023-02-11T14:27:41;9.30;99.90
30097;DHT22;16915;51.466;3.610;2023-02-11T14:30:31;9.20;99.90
30097;DHT22;16915;51.466;3.610;2023-02-11T14:41:22;9.20;99.90
30097;DHT22;16915;51.466;3.610;2023-02-11T14:46:47;9.20;99.90
30097;DHT22;16915;51.466;3.610;2023-02-11T14:49:30;9.20;99.90
30097;DHT22;16915;51.466;3.610;2023-02-11T14:52:03;9.20;99.90
30097;DHT22;16915;51.466;3.610;2023-02-11T14:54:31;9.10;99.90
30097;DHT22;16915;51.466;3.610;2023-02-11T14:57:23;9.10;99.90
30097;DHT22;16915;51.466;3.610;2023-02-11T14:59:59;9.00;99.90
30097;DHT22;16915;51.466;3.610;2023-02-11T15:02:34;9.00;99.90
30097;DHT22;16915;51.466;3.610;2023-02-11T15:05:20;9.00;99.90
30097;DHT22;16915;51.466;3.610;2023-02-11T15:07:49;8.90;99.90
30097;DHT22;16915;51.466;3.610;2023-02-11T15:10:32;8.90;99.90
30097;DHT22;16915;51.466;3.610;2023-02-11T15:13:00;8.90;99.90
30097;DHT22;16915;51.466;3.610;2023-02-11T15:15:27;8.80;99.90
30097;DHT22;16915;51.466;3.610;2023-02-11T15:17:57;8.80;99.90
30097;DHT22;16915;51.466;3.610;2023-02-11T15:20:26;8.70;99.90
30097;DHT22;16915;51.466;3.610;2023-02-11T15:22:59;8.70;99.90
30097;DHT22;16915;51.466;3.610;2023-02-11T15:25:26;8.70;99.90
30097;DHT22;16915;51.466;3.610;2023-02-11T15:27:55;8.70;99.90
30097;DHT22;16915;51.466;3.610;2023-02-11T15:32:54;8.60;99.90
30097;DHT22;16915;51.466;3.610;2023-02-11T15:35:24;8.60;99.90
30097;DHT22;16915;51.466;3.610;2023-02-11T15:37:52;8.60;99.90
30097;DHT22;16915;51.466;3.610;2023-02-11T15:40:21;8.60;99.90
30097;DHT22;16915;51.466;3.610;2023-02-11T15:43:08;8.60;99.90
30097;DHT22;16915;51.466;3.610;2023-02-11T15:45:43;8.60;99.90
30097;DHT22;16915;51.466;3.610;2023-02-11T15:50:55;8.50;99.90
30097;DHT22;16915;51.466;3.610;2023-02-11T15:53:32;8.50;99.90
30097;DHT22;16915;51.466;3.610;2023-02-11T15:56:08;8.60;99.90
30097;DHT22;16915;51.466;3.610;2023-02-11T15:58:39;8.50;99.90
30097;DHT22;16915;51.466;3.610;2023-02-11T16:01:06;8.50;99.90
30097;DHT22;16915;51.466;3.610;2023-02-11T16:03:32;8.40;99.90
30097;DHT22;16915;51.466;3.610;2023-02-11T16:06:18;8.40;99.90
30097;DHT22;16915;51.466;3.610;2023-02-11T16:09:01;8.40;99.90
30097;DHT22;16915;51.466;3.610;2023-02-11T16:11:34;8.30;99.90
30097;DHT22;16915;51.466;3.610;2023-02-11T16:14:01;8.30;99.90
30097;DHT22;16915;51.466;3.610;2023-02-11T16:16:45;8.30;99.90
30097;DHT22;16915;51.466;3.610;2023-02-11T16:19:17;8.30;99.90
30097;DHT22;16915;51.466;3.610;2023-02-11T16:21:43;8.30;99.90
30097;DHT22;16915;51.466;3.610;2023-02-11T16:24:21;8.30;99.90
30097;DHT22;16915;51.466;3.610;2023-02-11T16:26:49;8.30;99.90
30097;DHT22;16915;51.466;3.610;2023-02-11T16:29:18;8.30;99.90
30097;DHT22;16915;51.466;3.610;2023-02-11T16:31:47;8.20;99.90
30097;DHT22;16915;51.466;3.610;2023-02-11T16:34:19;8.20;99.90
30097;DHT22;16915;51.466;3.610;2023-02-11T16:36:46;8.20;99.90
30097;DHT22;16915;51.466;3.610;2023-02-11T16:39:12;8.20;99.90
30097;DHT22;16915;51.466;3.610;2023-02-11T16:41:38;8.20;99.90
30097;DHT22;16915;51.466;3.610;2023-02-11T16:44:04;8.10;99.90
30097;DHT22;16915;51.466;3.610;2023-02-11T16:46:31;8.10;99.90
30097;DHT22;16915;51.466;3.610;2023-02-11T16:48:58;8.10;99.90
30097;DHT22;16915;51.466;3.610;2023-02-11T16:51:28;8.10;99.90
30097;DHT22;16915;51.466;3.610;2023-02-11T16:53:54;8.10;99.90
30097;DHT22;16915;51.466;3.610;2023-02-11T16:56:19;8.10;99.90
30097;DHT22;16915;51.466;3.610;2023-02-11T16:58:45;8.10;99.90
30097;DHT22;16915;51.466;3.610;2023-02-11T17:01:10;8.00;99.90
30097;DHT22;16915;51.466;3.610;2023-02-11T17:03:38;8.00;99.90
30097;DHT22;16915;51.466;3.610;2023-02-11T17:06:09;8.00;99.90
30097;DHT22;16915;51.466;3.610;2023-02-11T17:08:35;8.00;99.90
30097;DHT22;16915;51.466;3.610;2023-02-11T17:11:02;8.00;99.90
30097;DHT22;16915;51.466;3.610;2023-02-11T17:13:27;8.00;99.90
30097;DHT22;16915;51.466;3.610;2023-02-11T17:15:53;7.90;99.90
30097;DHT22;16915;51.466;3.610;2023-02-11T17:18:19;7.90;99.90
30097;DHT22;16915;51.466;3.610;2023-02-11T17:20:44;7.90;99.90
30097;DHT22;16915;51.466;3.610;2023-02-11T17:23:10;7.80;99.90
30097;DHT22;16915;51.466;3.610;2023-02-11T17:25:36;7.80;99.90
30097;DHT22;16915;51.466;3.610;2023-02-11T17:28:03;7.80;99.90
30097;DHT22;16915;51.466;3.610;2023-02-11T17:30:29;7.80;99.90
30097;DHT22;16915;51.466;3.610;2023-02-11T17:32:55;7.80;99.90
30097;DHT22;16915;51.466;3.610;2023-02-11T17:35:20;7.70;99.90
30097;DHT22;16915;51.466;3.610;2023-02-11T17:37:46;7.70;99.90
30097;DHT22;16915;51.466;3.610;2023-02-11T17:40:12;7.70;99.90
30097;DHT22;16915;51.466;3.610;2023-02-11T17:42:38;7.70;99.90
30097;DHT22;16915;51.466;3.610;2023-02-11T17:45:05;7.60;99.90
30097;DHT22;16915;51.466;3.610;2023-02-11T17:47:30;7.60;99.90
30097;DHT22;16915;51.466;3.610;2023-02-11T17:49:56;7.60;99.90
30097;DHT22;16915;51.466;3.610;2023-02-11T17:52:22;7.60;99.90
30097;DHT22;16915;51.466;3.610;2023-02-11T17:54:48;7.60;99.90
30097;DHT22;16915;51.466;3.610;2023-02-11T17:57:14;7.60;99.90
30097;DHT22;16915;51.466;3.610;2023-02-11T17:59:40;7.60;99.90
30097;DHT22;16915;51.466;3.610;2023-02-11T18:02:06;7.60;99.90
30097;DHT22;16915;51.466;3.610;2023-02-11T18:04:32;7.50;99.90
30097;DHT22;16915;51.466;3.610;2023-02-11T18:06:57;7.50;99.90
30097;DHT22;16915;51.466;3.610;2023-02-11T18:09:24;7.50;99.90
30097;DHT22;16915;51.466;3.610;2023-02-11T18:11:50;7.50;99.90
30097;DHT22;16915;51.466;3.610;2023-02-11T18:14:17;7.50;99.90
30097;DHT22;16915;51.466;3.610;2023-02-11T18:16:43;7.50;99.90
30097;DHT22;16915;51.466;3.610;2023-02-11T18:19:11;7.50;99.90